sensor_id;sensor_type;location;lat;lon;timestamp;P1;durP1;ratioP1;P2;durP2;ratioP2
12038;SDS011;6080;48.818;9.526;2023-06-10T03:01:26;15.80;;;14.70;;
12038;SDS011;6080;48.818;9.526;2023-06-10T03:03:52;16.73;;;15.43;;
12038;SDS011;6080;48.818;9.526;2023-06-10T03:06:18;15.63;;;14.63;;
12038;SDS011;6080;48.818;9.526;2023-06-10T03:08:44;17.13;;;15.77;;
12038;SDS011;6080;48.818;9.526;2023-06-10T03:11:11;17.10;;;16.00;;
12038;SDS011;6080;48.818;9.526;2023-06-10T03:13:38;19.30;;;18.10;;
12038;SDS011;6080;48.818;9.526;2023-06-10T03:16:05;24.27;;;22.73;;
12038;SDS011;6080;48.818;9.526;2023-06-10T03:18:31;23.97;;;21.97;;
12038;SDS011;6080;48.818;9.526;2023-06-10T03:20:57;24.50;;;22.97;;
12038;SDS011;6080;48.818;9.526;2023-06-10T03:23:23;19.70;;;18.40;;
12038;SDS011;6080;48.818;9.526;2023-06-10T03:25:49;23.00;;;21.60;;
12038;SDS011;6080;48.818;9.526;2023-06-10T03:28:14;24.33;;;22.80;;
12038;SDS011;6080;48.818;9.526;2023-06-10T03:30:40;24.73;;;23.23;;
12038;SDS011;6080;48.818;9.526;2023-06-10T03:33:06;51.93;;;49.10;;
12038;SDS011;6080;48.818;9.526;2023-06-10T03:35:32;51.17;;;48.40;;
12038;SDS011;6080;48.818;9.526;2023-06-10T03:37:58;50.47;;;47.50;;
12038;SDS011;6080;48.818;9.526;2023-06-10T03:40:24;33.37;;;31.27;;
12038;SDS011;6080;48.818;9.526;2023-06-10T03:42:50;45.80;;;43.23;;
12038;SDS011;6080;48.818;9.526;2023-06-10T03:45:15;32.27;;;30.23;;
12038;SDS011;6080;48.818;9.526;2023-06-10T03:47:41;33.93;;;32.07;;
12038;SDS011;6080;48.818;9.526;2023-06-10T03:50:08;33.70;;;31.83;;
12038;SDS011;6080;48.818;9.526;2023-06-10T03:52:35;30.67;;;28.93;;
12038;SDS011;6080;48.818;9.526;2023-06-10T03:55:02;30.53;;;28.80;;
12038;SDS011;6080;48.818;9.526;2023-06-10T03:57:29;40.10;;;37.50;;
12038;SDS011;6080;48.818;9.526;2023-06-10T03:59:54;36.43;;;34.43;;
12038;SDS011;6080;48.818;9.526;2023-06-10T04:02:21;79.17;;;74.83;;
12038;SDS011;6080;48.818;9.526;2023-06-10T04:04:47;83.73;;;79.20;;
12038;SDS011;6080;48.818;9.526;2023-06-10T04:07:13;65.97;;;62.30;;
12038;SDS011;6080;48.818;9.526;2023-06-10T04:09:39;51.73;;;48.83;;
12038;SDS011;6080;48.818;9.526;2023-06-10T04:12:05;67.77;;;64.20;;
12038;SDS011;6080;48.818;9.526;2023-06-10T04:14:33;52.43;;;49.53;;
12038;SDS011;6080;48.818;9.526;2023-06-10T04:17:01;89.07;;;84.37;;
12038;SDS011;6080;48.818;9.526;2023-06-10T04:19:27;115.27;;;109.20;;
12038;SDS011;6080;48.818;9.526;2023-06-10T04:21:53;121.30;;;115.03;;
12038;SDS011;6080;48.818;9.526;2023-06-10T04:24:19;53.80;;;50.47;;
12038;SDS011;6080;48.818;9.526;2023-06-10T04:26:45;28.47;;;26.57;;
12038;SDS011;6080;48.818;9.526;2023-06-10T04:29:11;39.23;;;37.00;;
12038;SDS011;6080;48.818;9.526;2023-06-10T04:31:37;58.40;;;55.00;;
12038;SDS011;6080;48.818;9.526;2023-06-10T04:34:02;78.97;;;74.60;;
12038;SDS011;6080;48.818;9.526;2023-06-10T04:36:28;77.80;;;73.77;;
12038;SDS011;6080;48.818;9.526;2023-06-10T04:38:55;80.17;;;76.00;;
12038;SDS011;6080;48.818;9.526;2023-06-10T04:41:20;99.70;;;94.47;;
12038;SDS011;6080;48.818;9.526;2023-06-10T04:43:47;115.03;;;109.27;;
12038;SDS011;6080;48.818;9.526;2023-06-10T04:46:13;127.37;;;120.80;;
12038;SDS011;6080;48.818;9.526;2023-06-10T04:48:39;36.23;;;34.03;;
12038;SDS011;6080;48.818;9.526;2023-06-10T04:51:05;14.70;;;13.67;;
12038;SDS011;6080;48.818;9.526;2023-06-10T04:53:31;9.90;;;9.20;;
12038;SDS011;6080;48.818;9.526;2023-06-10T04:55:57;25.80;;;24.37;;
12038;SDS011;6080;48.818;9.526;2023-06-10T04:58:23;98.47;;;93.43;;
12038;SDS011;6080;48.818;9.526;2023-06-10T05:00:49;113.67;;;107.87;;
12038;SDS011;6080;48.818;9.526;2023-06-10T05:03:15;19.50;;;18.30;;
12038;SDS011;6080;48.818;9.526;2023-06-10T05:05:40;10.70;;;9.85;;
12038;SDS011;6080;48.818;9.526;2023-06-10T05:08:06;17.70;;;16.50;;
12038;SDS011;6080;48.818;9.526;2023-06-10T05:10:32;22.20;;;20.90;;
12038;SDS011;6080;48.818;9.526;2023-06-10T05:12:59;19.38;;;18.02;;
12038;SDS011;6080;48.818;9.526;2023-06-10T05:15:25;16.40;;;15.48;;
12038;SDS011;6080;48.818;9.526;2023-06-10T05:17:51;13.93;;;12.80;;
12038;SDS011;6080;48.818;9.526;2023-06-10T05:20:17;14.98;;;13.88;;
12038;SDS011;6080;48.818;9.526;2023-06-10T05:22:43;14.32;;;13.27;;
12038;SDS011;6080;48.818;9.526;2023-06-10T05:25:09;12.93;;;10.00;;
12038;SDS011;6080;48.818;9.526;2023-06-10T05:27:35;9.63;;;8.70;;
12038;SDS011;6080;48.818;9.526;2023-06-10T05:30:02;19.13;;;17.83;;
12038;SDS011;6080;48.818;9.526;2023-06-10T05:32:28;13.40;;;12.52;;
12038;SDS011;6080;48.818;9.526;2023-06-10T05:34:54;8.88;;;8.27;;
12038;SDS011;6080;48.818;9.526;2023-06-10T05:37:20;11.02;;;9.15;;
12038;SDS011;6080;48.818;9.526;2023-06-10T05:39:45;11.02;;;10.13;;
12038;SDS011;6080;48.818;9.526;2023-06-10T05:42:11;18.05;;;16.98;;
12038;SDS011;6080;48.818;9.526;2023-06-10T05:44:37;11.27;;;10.45;;
12038;SDS011;6080;48.818;9.526;2023-06-10T05:47:02;7.82;;;7.22;;
12038;SDS011;6080;48.818;9.526;2023-06-10T05:49:28;7.38;;;6.85;;
12038;SDS011;6080;48.818;9.526;2023-06-10T05:51:54;9.15;;;8.55;;
12038;SDS011;6080;48.818;9.526;2023-06-10T05:54:22;12.02;;;11.20;;
12038;SDS011;6080;48.818;9.526;2023-06-10T05:56:48;16.75;;;15.80;;
12038;SDS011;6080;48.818;9.526;2023-06-10T05:59:14;22.35;;;21.15;;
12038;SDS011;6080;48.818;9.526;2023-06-10T06:01:39;20.50;;;19.40;;
12038;SDS011;6080;48.818;9.526;2023-06-10T06:04:05;21.73;;;20.58;;
12038;SDS011;6080;48.818;9.526;2023-06-10T06:06:31;18.80;;;17.77;;
12038;SDS011;6080;48.818;9.526;2023-06-10T06:08:57;13.45;;;12.75;;
12038;SDS011;6080;48.818;9.526;2023-06-10T06:11:22;11.70;;;10.80;;
12038;SDS011;6080;48.818;9.526;2023-06-10T06:13:49;9.93;;;9.32;;
12038;SDS011;6080;48.818;9.526;2023-06-10T06:16:15;9.45;;;8.95;;
12038;SDS011;6080;48.818;9.526;2023-06-10T06:18:41;8.65;;;8.15;;
12038;SDS011;6080;48.818;9.526;2023-06-10T06:21:07;9.15;;;8.60;;
12038;SDS011;6080;48.818;9.526;2023-06-10T06:23:33;8.75;;;8.25;;
12038;SDS011;6080;48.818;9.526;2023-06-10T06:25:59;10.88;;;10.18;;
12038;SDS011;6080;48.818;9.526;2023-06-10T06:28:24;7.18;;;6.68;;
12038;SDS011;6080;48.818;9.526;2023-06-10T06:30:54;6.45;;;5.95;;
12038;SDS011;6080;48.818;9.526;2023-06-10T06:33:21;6.72;;;6.32;;
12038;SDS011;6080;48.818;9.526;2023-06-10T06:35:46;6.90;;;6.10;;
12038;SDS011;6080;48.818;9.526;2023-06-10T06:38:12;6.80;;;6.30;;
12038;SDS011;6080;48.818;9.526;2023-06-10T06:40:38;8.75;;;8.25;;
12038;SDS011;6080;48.818;9.526;2023-06-10T06:43:04;8.48;;;7.90;;
12038;SDS011;6080;48.818;9.526;2023-06-10T06:45:29;7.28;;;6.78;;
12038;SDS011;6080;48.818;9.526;2023-06-10T06:47:55;6.38;;;5.97;;
12038;SDS011;6080;48.818;9.526;2023-06-10T06:50:21;6.72;;;6.22;;
12038;SDS011;6080;48.818;9.526;2023-06-10T06:52:47;7.80;;;7.30;;
12038;SDS011;6080;48.818;9.526;2023-06-10T06:55:13;7.20;;;6.78;;
12038;SDS011;6080;48.818;9.526;2023-06-10T06:57:38;6.40;;;5.80;;
12038;SDS011;6080;48.818;9.526;2023-06-10T07:00:04;7.15;;;6.43;;
12038;SDS011;6080;48.818;9.526;2023-06-10T07:02:33;8.13;;;7.57;;
12038;SDS011;6080;48.818;9.526;2023-06-10T07:04:58;8.05;;;7.55;;
12038;SDS011;6080;48.818;9.526;2023-06-10T07:07:24;7.97;;;7.38;;
12038;SDS011;6080;48.818;9.526;2023-06-10T07:09:50;8.15;;;7.55;;
12038;SDS011;6080;48.818;9.526;2023-06-10T07:12:16;6.78;;;6.40;;
12038;SDS011;6080;48.818;9.526;2023-06-10T07:14:42;6.68;;;6.28;;
12038;SDS011;6080;48.818;9.526;2023-06-10T07:17:08;7.78;;;7.28;;
12038;SDS011;6080;48.818;9.526;2023-06-10T07:19:34;7.63;;;7.22;;
12038;SDS011;6080;48.818;9.526;2023-06-10T07:22:00;8.57;;;8.07;;
12038;SDS011;6080;48.818;9.526;2023-06-10T07:24:26;8.75;;;8.25;;
12038;SDS011;6080;48.818;9.526;2023-06-10T07:26:51;11.43;;;10.63;;
12038;SDS011;6080;48.818;9.526;2023-06-10T07:29:17;15.82;;;15.00;;
12038;SDS011;6080;48.818;9.526;2023-06-10T07:31:43;9.32;;;8.77;;
12038;SDS011;6080;48.818;9.526;2023-06-10T07:34:09;5.78;;;5.40;;
12038;SDS011;6080;48.818;9.526;2023-06-10T07:36:34;6.65;;;6.30;;
12038;SDS011;6080;48.818;9.526;2023-06-10T07:39:01;7.28;;;6.88;;
12038;SDS011;6080;48.818;9.526;2023-06-10T07:41:27;6.45;;;6.10;;
12038;SDS011;6080;48.818;9.526;2023-06-10T07:43:53;6.50;;;6.15;;
12038;SDS011;6080;48.818;9.526;2023-06-10T07:46:22;7.80;;;6.50;;
12038;SDS011;6080;48.818;9.526;2023-06-10T07:48:49;8.93;;;8.38;;
12038;SDS011;6080;48.818;9.526;2023-06-10T07:51:15;14.77;;;13.98;;
12038;SDS011;6080;48.818;9.526;2023-06-10T07:53:42;13.80;;;12.98;;
12038;SDS011;6080;48.818;9.526;2023-06-10T07:56:08;13.60;;;12.90;;
12038;SDS011;6080;48.818;9.526;2023-06-10T07:58:33;8.75;;;8.25;;
12038;SDS011;6080;48.818;9.526;2023-06-10T08:00:59;7.78;;;7.38;;
12038;SDS011;6080;48.818;9.526;2023-06-10T08:03:25;7.13;;;6.65;;
12038;SDS011;6080;48.818;9.526;2023-06-10T08:05:51;5.80;;;5.50;;
12038;SDS011;6080;48.818;9.526;2023-06-10T08:08:16;6.72;;;6.32;;
12038;SDS011;6080;48.818;9.526;2023-06-10T08:10:42;6.00;;;5.60;;
12038;SDS011;6080;48.818;9.526;2023-06-10T08:13:08;6.30;;;6.00;;
12038;SDS011;6080;48.818;9.526;2023-06-10T08:15:34;6.13;;;5.72;;
12038;SDS011;6080;48.818;9.526;2023-06-10T08:18:00;7.40;;;6.57;;
12038;SDS011;6080;48.818;9.526;2023-06-10T08:20:26;7.00;;;6.47;;
12038;SDS011;6080;48.818;9.526;2023-06-10T08:22:51;7.55;;;7.03;;
12038;SDS011;6080;48.818;9.526;2023-06-10T08:25:17;8.10;;;7.60;;
12038;SDS011;6080;48.818;9.526;2023-06-10T08:27:43;8.68;;;8.25;;
12038;SDS011;6080;48.818;9.526;2023-06-10T08:30:09;10.50;;;9.80;;
12038;SDS011;6080;48.818;9.526;2023-06-10T08:32:36;9.85;;;9.30;;
12038;SDS011;6080;48.818;9.526;2023-06-10T08:35:02;7.35;;;6.85;;
12038;SDS011;6080;48.818;9.526;2023-06-10T08:37:28;7.57;;;7.18;;
12038;SDS011;6080;48.818;9.526;2023-06-10T08:39:55;9.63;;;9.05;;
12038;SDS011;6080;48.818;9.526;2023-06-10T08:42:25;11.48;;;10.88;;
12038;SDS011;6080;48.818;9.526;2023-06-10T08:44:58;10.40;;;9.65;;
12038;SDS011;6080;48.818;9.526;2023-06-10T08:47:28;7.10;;;6.40;;
12038;SDS011;6080;48.818;9.526;2023-06-10T08:49:56;8.05;;;7.55;;
12038;SDS011;6080;48.818;9.526;2023-06-10T08:52:28;7.80;;;7.05;;
12038;SDS011;6080;48.818;9.526;2023-06-10T08:55:01;7.35;;;6.88;;
12038;SDS011;6080;48.818;9.526;2023-06-10T08:57:30;6.75;;;6.25;;
12038;SDS011;6080;48.818;9.526;2023-06-10T08:59:57;7.55;;;7.03;;
12038;SDS011;6080;48.818;9.526;2023-06-10T09:02:27;7.50;;;7.00;;
12038;SDS011;6080;48.818;9.526;2023-06-10T09:04:53;8.38;;;7.88;;
12038;SDS011;6080;48.818;9.526;2023-06-10T09:07:22;7.10;;;6.70;;
12038;SDS011;6080;48.818;9.526;2023-06-10T09:09:48;6.53;;;6.05;;
12038;SDS011;6080;48.818;9.526;2023-06-10T09:12:15;9.85;;;9.18;;
12038;SDS011;6080;48.818;9.526;2023-06-10T09:14:43;11.38;;;10.48;;
12038;SDS011;6080;48.818;9.526;2023-06-10T09:17:10;11.23;;;10.52;;
12038;SDS011;6080;48.818;9.526;2023-06-10T09:19:36;10.82;;;10.02;;
12038;SDS011;6080;48.818;9.526;2023-06-10T09:22:05;6.85;;;6.35;;
12038;SDS011;6080;48.818;9.526;2023-06-10T09:24:31;5.65;;;5.35;;
12038;SDS011;6080;48.818;9.526;2023-06-10T09:27:03;6.45;;;6.05;;
12038;SDS011;6080;48.818;9.526;2023-06-10T09:29:32;6.40;;;5.90;;
12038;SDS011;6080;48.818;9.526;2023-06-10T09:32:17;6.20;;;5.65;;
12038;SDS011;6080;48.818;9.526;2023-06-10T09:34:43;7.00;;;6.60;;
12038;SDS011;6080;48.818;9.526;2023-06-10T09:37:10;7.25;;;6.82;;
12038;SDS011;6080;48.818;9.526;2023-06-10T09:39:38;6.70;;;6.30;;
12038;SDS011;6080;48.818;9.526;2023-06-10T09:42:16;7.57;;;7.07;;
12038;SDS011;6080;48.818;9.526;2023-06-10T09:44:50;6.78;;;6.22;;
12038;SDS011;6080;48.818;9.526;2023-06-10T09:47:22;7.57;;;7.18;;
12038;SDS011;6080;48.818;9.526;2023-06-10T09:49:49;9.15;;;8.65;;
12038;SDS011;6080;48.818;9.526;2023-06-10T09:52:25;7.13;;;6.55;;
12038;SDS011;6080;48.818;9.526;2023-06-10T09:54:52;7.28;;;6.68;;
12038;SDS011;6080;48.818;9.526;2023-06-10T09:57:19;7.65;;;6.93;;
12038;SDS011;6080;48.818;9.526;2023-06-10T09:59:46;7.10;;;6.50;;
12038;SDS011;6080;48.818;9.526;2023-06-10T10:02:15;8.30;;;7.82;;
12038;SDS011;6080;48.818;9.526;2023-06-10T10:04:42;6.75;;;6.35;;
12038;SDS011;6080;48.818;9.526;2023-06-10T10:07:09;8.45;;;7.65;;
12038;SDS011;6080;48.818;9.526;2023-06-10T10:09:39;6.63;;;6.22;;
12038;SDS011;6080;48.818;9.526;2023-06-10T10:12:09;9.43;;;8.82;;
12038;SDS011;6080;48.818;9.526;2023-06-10T10:14:37;7.18;;;6.70;;
12038;SDS011;6080;48.818;9.526;2023-06-10T10:17:10;6.82;;;6.40;;
12038;SDS011;6080;48.818;9.526;2023-06-10T10:19:39;9.52;;;8.95;;
12038;SDS011;6080;48.818;9.526;2023-06-10T10:22:15;13.43;;;12.73;;
12038;SDS011;6080;48.818;9.526;2023-06-10T10:24:49;12.77;;;11.98;;
12038;SDS011;6080;48.818;9.526;2023-06-10T10:27:18;10.30;;;9.70;;
12038;SDS011;6080;48.818;9.526;2023-06-10T10:30:08;15.05;;;14.25;;
12038;SDS011;6080;48.818;9.526;2023-06-10T10:32:56;15.88;;;14.88;;
12038;SDS011;6080;48.818;9.526;2023-06-10T10:35:26;10.07;;;9.35;;
12038;SDS011;6080;48.818;9.526;2023-06-10T10:37:53;15.57;;;14.45;;
12038;SDS011;6080;48.818;9.526;2023-06-10T10:40:23;37.83;;;35.83;;
12038;SDS011;6080;48.818;9.526;2023-06-10T10:42:51;33.42;;;31.67;;
12038;SDS011;6080;48.818;9.526;2023-06-10T10:45:17;9.20;;;8.50;;
12038;SDS011;6080;48.818;9.526;2023-06-10T10:47:45;11.38;;;10.73;;
12038;SDS011;6080;48.818;9.526;2023-06-10T10:50:15;9.85;;;9.13;;
12038;SDS011;6080;48.818;9.526;2023-06-10T10:52:52;7.88;;;7.25;;
12038;SDS011;6080;48.818;9.526;2023-06-10T10:55:24;8.88;;;8.27;;
12038;SDS011;6080;48.818;9.526;2023-06-10T10:58:11;13.75;;;13.05;;
12038;SDS011;6080;48.818;9.526;2023-06-10T11:00:44;12.75;;;12.02;;
12038;SDS011;6080;48.818;9.526;2023-06-10T11:03:17;14.82;;;13.93;;
12038;SDS011;6080;48.818;9.526;2023-06-10T11:05:46;9.48;;;8.95;;
12038;SDS011;6080;48.818;9.526;2023-06-10T11:08:59;15.50;;;14.70;;
12038;SDS011;6080;48.818;9.526;2023-06-10T11:11:00;18.40;;;17.25;;
12038;SDS011;6080;48.818;9.526;2023-06-10T11:13:26;14.80;;;13.80;;
12038;SDS011;6080;48.818;9.526;2023-06-10T11:15:56;10.55;;;9.85;;
12038;SDS011;6080;48.818;9.526;2023-06-10T11:18:24;8.15;;;7.65;;
12038;SDS011;6080;48.818;9.526;2023-06-10T11:28:39;7.38;;;6.88;;
12038;SDS011;6080;48.818;9.526;2023-06-10T11:31:06;8.50;;;7.90;;
12038;SDS011;6080;48.818;9.526;2023-06-10T11:33:32;8.75;;;8.15;;
12038;SDS011;6080;48.818;9.526;2023-06-10T11:35:58;5.80;;;5.40;;
12038;SDS011;6080;48.818;9.526;2023-06-10T11:38:24;7.55;;;6.93;;
12038;SDS011;6080;48.818;9.526;2023-06-10T11:40:50;7.82;;;7.22;;
12038;SDS011;6080;48.818;9.526;2023-06-10T11:43:19;7.65;;;7.20;;
12038;SDS011;6080;48.818;9.526;2023-06-10T11:45:45;9.63;;;9.07;;
12038;SDS011;6080;48.818;9.526;2023-06-10T11:48:14;9.07;;;8.18;;
12038;SDS011;6080;48.818;9.526;2023-06-10T11:50:40;24.10;;;22.85;;
12038;SDS011;6080;48.818;9.526;2023-06-10T11:53:08;25.52;;;24.27;;
12038;SDS011;6080;48.818;9.526;2023-06-10T11:55:44;19.10;;;18.05;;
12038;SDS011;6080;48.818;9.526;2023-06-10T11:58:20;16.77;;;15.88;;
12038;SDS011;6080;48.818;9.526;2023-06-10T12:00:48;26.27;;;24.90;;
12038;SDS011;6080;48.818;9.526;2023-06-10T12:03:26;36.45;;;34.70;;
12038;SDS011;6080;48.818;9.526;2023-06-10T12:06:01;30.70;;;29.00;;
12038;SDS011;6080;48.818;9.526;2023-06-10T12:08:28;26.00;;;24.63;;
12038;SDS011;6080;48.818;9.526;2023-06-10T12:10:55;35.20;;;33.33;;
12038;SDS011;6080;48.818;9.526;2023-06-10T12:13:22;30.95;;;29.25;;
12038;SDS011;6080;48.818;9.526;2023-06-10T12:15:52;28.58;;;27.08;;
12038;SDS011;6080;48.818;9.526;2023-06-10T12:18:23;5.80;;;5.50;;
12038;SDS011;6080;48.818;9.526;2023-06-10T12:20:49;6.45;;;6.13;;
12038;SDS011;6080;48.818;9.526;2023-06-10T12:23:16;6.28;;;5.75;;
12038;SDS011;6080;48.818;9.526;2023-06-10T12:25:50;6.40;;;5.90;;
12038;SDS011;6080;48.818;9.526;2023-06-10T12:28:17;6.85;;;6.40;;
12038;SDS011;6080;48.818;9.526;2023-06-10T12:30:45;6.45;;;6.05;;
12038;SDS011;6080;48.818;9.526;2023-06-10T12:33:21;6.72;;;6.22;;
12038;SDS011;6080;48.818;9.526;2023-06-10T12:35:47;5.85;;;5.45;;
12038;SDS011;6080;48.818;9.526;2023-06-10T12:38:15;5.95;;;5.55;;
12038;SDS011;6080;48.818;9.526;2023-06-10T12:40:49;11.25;;;10.65;;
12038;SDS011;6080;48.818;9.526;2023-06-10T12:43:22;12.90;;;12.25;;
12038;SDS011;6080;48.818;9.526;2023-06-10T12:45:48;6.97;;;6.68;;
12038;SDS011;6080;48.818;9.526;2023-06-10T12:48:18;6.40;;;6.05;;
12038;SDS011;6080;48.818;9.526;2023-06-10T12:50:49;7.53;;;7.13;;
12038;SDS011;6080;48.818;9.526;2023-06-10T12:53:19;5.38;;;4.97;;
12038;SDS011;6080;48.818;9.526;2023-06-10T12:55:46;12.38;;;11.77;;
12038;SDS011;6080;48.818;9.526;2023-06-10T12:58:12;29.83;;;28.33;;
12038;SDS011;6080;48.818;9.526;2023-06-10T13:00:38;18.50;;;17.60;;
12038;SDS011;6080;48.818;9.526;2023-06-10T13:03:05;6.43;;;6.10;;
12038;SDS011;6080;48.818;9.526;2023-06-10T13:05:32;7.30;;;6.90;;
12038;SDS011;6080;48.818;9.526;2023-06-10T13:07:58;5.32;;;5.03;;
12038;SDS011;6080;48.818;9.526;2023-06-10T13:10:24;5.15;;;4.90;;
12038;SDS011;6080;48.818;9.526;2023-06-10T13:12:51;6.28;;;5.93;;
12038;SDS011;6080;48.818;9.526;2023-06-10T13:15:17;6.10;;;5.65;;
12038;SDS011;6080;48.818;9.526;2023-06-10T13:17:43;6.28;;;5.90;;
12038;SDS011;6080;48.818;9.526;2023-06-10T13:20:11;6.60;;;6.10;;
12038;SDS011;6080;48.818;9.526;2023-06-10T13:22:37;9.32;;;8.85;;
12038;SDS011;6080;48.818;9.526;2023-06-10T13:25:03;7.90;;;7.28;;
12038;SDS011;6080;48.818;9.526;2023-06-10T13:27:30;13.32;;;12.63;;
12038;SDS011;6080;48.818;9.526;2023-06-10T13:29:56;59.20;;;56.40;;
12038;SDS011;6080;48.818;9.526;2023-06-10T13:32:21;19.00;;;18.05;;
12038;SDS011;6080;48.818;9.526;2023-06-10T13:34:47;13.68;;;12.77;;
12038;SDS011;6080;48.818;9.526;2023-06-10T13:37:14;32.20;;;30.60;;
12038;SDS011;6080;48.818;9.526;2023-06-10T13:39:42;58.13;;;55.38;;
12038;SDS011;6080;48.818;9.526;2023-06-10T13:42:08;42.47;;;40.25;;
12038;SDS011;6080;48.818;9.526;2023-06-10T13:44:34;25.02;;;23.75;;
12038;SDS011;6080;48.818;9.526;2023-06-10T13:47:04;15.95;;;15.15;;
12038;SDS011;6080;48.818;9.526;2023-06-10T13:49:30;34.33;;;32.58;;
12038;SDS011;6080;48.818;9.526;2023-06-10T13:51:56;42.28;;;40.17;;
12038;SDS011;6080;48.818;9.526;2023-06-10T13:54:22;22.65;;;21.45;;
12038;SDS011;6080;48.818;9.526;2023-06-10T13:56:48;35.63;;;33.67;;
12038;SDS011;6080;48.818;9.526;2023-06-10T13:59:14;40.97;;;38.80;;
12038;SDS011;6080;48.818;9.526;2023-06-10T14:01:39;44.90;;;42.60;;
12038;SDS011;6080;48.818;9.526;2023-06-10T14:04:06;36.80;;;34.95;;
12038;SDS011;6080;48.818;9.526;2023-06-10T14:06:32;33.10;;;31.52;;
12038;SDS011;6080;48.818;9.526;2023-06-10T14:08:59;7.18;;;6.57;;
12038;SDS011;6080;48.818;9.526;2023-06-10T14:11:25;7.68;;;7.22;;
12038;SDS011;6080;48.818;9.526;2023-06-10T14:13:51;21.63;;;20.48;;
12038;SDS011;6080;48.818;9.526;2023-06-10T14:16:17;30.13;;;28.42;;
12038;SDS011;6080;48.818;9.526;2023-06-10T14:18:43;9.73;;;6.93;;
12038;SDS011;6080;48.818;9.526;2023-06-10T14:21:08;7.13;;;6.63;;
12038;SDS011;6080;48.818;9.526;2023-06-10T14:23:34;11.15;;;10.30;;
12038;SDS011;6080;48.818;9.526;2023-06-10T14:26:00;22.98;;;21.83;;
12038;SDS011;6080;48.818;9.526;2023-06-10T14:28:28;35.83;;;34.00;;
12038;SDS011;6080;48.818;9.526;2023-06-10T14:30:54;31.92;;;30.23;;
12038;SDS011;6080;48.818;9.526;2023-06-10T14:33:20;26.65;;;25.27;;
12038;SDS011;6080;48.818;9.526;2023-06-10T14:35:45;31.05;;;29.50;;
12038;SDS011;6080;48.818;9.526;2023-06-10T14:38:11;16.83;;;16.02;;
12038;SDS011;6080;48.818;9.526;2023-06-10T14:40:37;9.02;;;8.52;;
12038;SDS011;6080;48.818;9.526;2023-06-10T14:43:03;10.45;;;9.82;;
12038;SDS011;6080;48.818;9.526;2023-06-10T14:45:35;5.68;;;5.38;;
12038;SDS011;6080;48.818;9.526;2023-06-10T14:48:04;6.32;;;5.93;;
12038;SDS011;6080;48.818;9.526;2023-06-10T14:50:30;6.45;;;6.05;;
12038;SDS011;6080;48.818;9.526;2023-06-10T14:52:57;6.90;;;6.40;;
12038;SDS011;6080;48.818;9.526;2023-06-10T14:55:27;6.32;;;6.03;;
12038;SDS011;6080;48.818;9.526;2023-06-10T14:57:52;7.43;;;6.93;;
12038;SDS011;6080;48.818;9.526;2023-06-10T15:00:18;6.10;;;5.80;;
12038;SDS011;6080;48.818;9.526;2023-06-10T15:02:49;7.13;;;6.72;;
12038;SDS011;6080;48.818;9.526;2023-06-10T15:05:15;7.28;;;6.68;;
12038;SDS011;6080;48.818;9.526;2023-06-10T15:07:42;6.78;;;6.45;;
12038;SDS011;6080;48.818;9.526;2023-06-10T15:10:08;6.43;;;6.13;;
12038;SDS011;6080;48.818;9.526;2023-06-10T15:12:34;8.00;;;7.40;;
12038;SDS011;6080;48.818;9.526;2023-06-10T15:15:01;7.95;;;7.55;;
12038;SDS011;6080;48.818;9.526;2023-06-10T15:17:27;7.88;;;7.47;;
12038;SDS011;6080;48.818;9.526;2023-06-10T15:19:53;5.90;;;5.60;;
12038;SDS011;6080;48.818;9.526;2023-06-10T15:22:19;8.20;;;7.70;;
12038;SDS011;6080;48.818;9.526;2023-06-10T15:24:44;9.70;;;9.07;;
12038;SDS011;6080;48.818;9.526;2023-06-10T15:27:10;33.88;;;31.98;;
12038;SDS011;6080;48.818;9.526;2023-06-10T15:29:36;40.40;;;38.40;;
12038;SDS011;6080;48.818;9.526;2023-06-10T15:32:02;22.02;;;20.98;;
12038;SDS011;6080;48.818;9.526;2023-06-10T15:34:27;16.00;;;15.25;;
12038;SDS011;6080;48.818;9.526;2023-06-10T15:36:53;7.70;;;5.13;;
12038;SDS011;6080;48.818;9.526;2023-06-10T15:39:19;7.32;;;7.03;;
12038;SDS011;6080;48.818;9.526;2023-06-10T15:41:45;9.05;;;8.60;;
12038;SDS011;6080;48.818;9.526;2023-06-10T15:44:11;11.48;;;10.95;;
12038;SDS011;6080;48.818;9.526;2023-06-10T15:46:37;7.65;;;7.25;;
12038;SDS011;6080;48.818;9.526;2023-06-10T15:49:03;6.38;;;6.07;;
12038;SDS011;6080;48.818;9.526;2023-06-10T15:51:28;5.97;;;5.68;;
12038;SDS011;6080;48.818;9.526;2023-06-10T15:53:54;7.30;;;6.97;;
12038;SDS011;6080;48.818;9.526;2023-06-10T15:56:21;7.43;;;6.88;;
12038;SDS011;6080;48.818;9.526;2023-06-10T15:58:47;11.07;;;10.57;;
12038;SDS011;6080;48.818;9.526;2023-06-10T16:01:13;9.10;;;8.60;;
12038;SDS011;6080;48.818;9.526;2023-06-10T16:03:39;6.28;;;5.97;;
12038;SDS011;6080;48.818;9.526;2023-06-10T16:06:06;8.75;;;8.25;;
12038;SDS011;6080;48.818;9.526;2023-06-10T16:08:32;21.55;;;20.45;;
12038;SDS011;6080;48.818;9.526;2023-06-10T16:10:58;28.88;;;27.15;;
12038;SDS011;6080;48.818;9.526;2023-06-10T16:13:24;36.35;;;34.55;;
12038;SDS011;6080;48.818;9.526;2023-06-10T16:15:50;11.57;;;10.98;;
12038;SDS011;6080;48.818;9.526;2023-06-10T16:18:16;8.68;;;8.18;;
12038;SDS011;6080;48.818;9.526;2023-06-10T16:20:42;7.90;;;7.50;;
12038;SDS011;6080;48.818;9.526;2023-06-10T16:23:08;7.47;;;7.07;;
12038;SDS011;6080;48.818;9.526;2023-06-10T16:25:34;5.85;;;5.55;;
12038;SDS011;6080;48.818;9.526;2023-06-10T16:28:00;6.15;;;5.85;;
12038;SDS011;6080;48.818;9.526;2023-06-10T16:30:27;5.53;;;5.15;;
12038;SDS011;6080;48.818;9.526;2023-06-10T16:32:53;6.78;;;6.40;;
12038;SDS011;6080;48.818;9.526;2023-06-10T16:35:19;8.60;;;8.18;;
12038;SDS011;6080;48.818;9.526;2023-06-10T16:37:45;15.25;;;14.45;;
12038;SDS011;6080;48.818;9.526;2023-06-10T16:40:11;19.08;;;18.05;;
12038;SDS011;6080;48.818;9.526;2023-06-10T16:42:37;17.63;;;16.75;;
12038;SDS011;6080;48.818;9.526;2023-06-10T16:45:02;13.30;;;12.63;;
12038;SDS011;6080;48.818;9.526;2023-06-10T16:47:28;11.45;;;10.75;;
12038;SDS011;6080;48.818;9.526;2023-06-10T16:49:54;9.48;;;8.88;;
12038;SDS011;6080;48.818;9.526;2023-06-10T16:52:20;9.38;;;8.88;;
12038;SDS011;6080;48.818;9.526;2023-06-10T16:54:46;9.63;;;9.13;;
12038;SDS011;6080;48.818;9.526;2023-06-10T16:57:12;9.05;;;8.35;;
12038;SDS011;6080;48.818;9.526;2023-06-10T16:59:38;8.55;;;8.05;;
12038;SDS011;6080;48.818;9.526;2023-06-10T17:02:04;8.85;;;8.07;;
12038;SDS011;6080;48.818;9.526;2023-06-10T17:04:30;8.82;;;8.07;;
12038;SDS011;6080;48.818;9.526;2023-06-10T17:06:56;10.52;;;9.93;;
12038;SDS011;6080;48.818;9.526;2023-06-10T17:09:22;11.65;;;10.75;;
12038;SDS011;6080;48.818;9.526;2023-06-10T17:11:47;10.75;;;10.20;;
12038;SDS011;6080;48.818;9.526;2023-06-10T17:14:13;11.32;;;10.63;;
12038;SDS011;6080;48.818;9.526;2023-06-10T17:16:39;10.85;;;10.25;;
12038;SDS011;6080;48.818;9.526;2023-06-10T17:19:06;10.27;;;9.68;;
12038;SDS011;6080;48.818;9.526;2023-06-10T17:21:31;10.90;;;10.30;;
12038;SDS011;6080;48.818;9.526;2023-06-10T17:23:57;9.65;;;9.15;;
12038;SDS011;6080;48.818;9.526;2023-06-10T17:26:23;12.70;;;12.00;;
12038;SDS011;6080;48.818;9.526;2023-06-10T17:28:50;12.88;;;12.18;;
12038;SDS011;6080;48.818;9.526;2023-06-10T17:31:16;12.98;;;12.13;;
12038;SDS011;6080;48.818;9.526;2023-06-10T17:33:42;12.20;;;11.60;;
12038;SDS011;6080;48.818;9.526;2023-06-10T17:36:08;12.10;;;11.48;;
12038;SDS011;6080;48.818;9.526;2023-06-10T17:38:33;12.25;;;11.45;;
12038;SDS011;6080;48.818;9.526;2023-06-10T17:40:59;10.90;;;10.30;;
12038;SDS011;6080;48.818;9.526;2023-06-10T17:43:25;10.93;;;10.32;;
12038;SDS011;6080;48.818;9.526;2023-06-10T17:45:51;10.35;;;9.77;;
12038;SDS011;6080;48.818;9.526;2023-06-10T17:48:17;7.90;;;7.40;;
12038;SDS011;6080;48.818;9.526;2023-06-10T17:50:43;7.32;;;6.97;;
12038;SDS011;6080;48.818;9.526;2023-06-10T17:53:09;8.35;;;7.85;;
12038;SDS011;6080;48.818;9.526;2023-06-10T17:55:35;7.95;;;7.47;;